Flight Track Log - Related Links

Times and Time Zones

All times are in EDT time to prevent confusion due to time zone crossing. See the SWA311 flight status page for this flight to view local times or setup timezone preferences in your user account.


Time Position Orientation Groundspeed Altitude Reporting Facility
EDT Latitude Longitude Course Direction KTS MPH feet Rate Location/Type
Wed 12:33:29 PM 39.8833 -104.5667 90° East 201 231 7,400  Level Denver TRACON
Wed 12:34:26 PM 39.8833 -104.4667 90° East 262 302 9,400 2,330 Climbing Denver TRACON
Wed 12:35:12 PM 39.8714 -104.4022 104° East 268 308 11,400 2,604 Climbing Denver Center
Wed 12:36:12 PM 39.8742 -104.2789 88° East 319 367 14,000 3,025 Climbing Denver Center
Wed 12:37:13 PM 39.8728 -104.1567 91° East 336 387 17,500 2,903 Climbing Denver Center
Wed 12:38:00 PM 39.8667 -104.1880 90° East  Level FlightAware Approximate
Wed 12:38:16 PM 39.8714 -104.0297 91° East 351 404 20,000  Level Denver Center
Wed 12:39:17 PM 39.8719 -103.8933 90° East 358 412 22,800 2,516 Climbing Denver Center
Wed 12:40:20 PM 39.8814 -103.7581 85° East 371 427 25,200 2,015 Climbing Denver Center
Wed 12:41:34 PM 39.8967 -103.6186 82° East 386 444 27,400 1,985 Climbing Denver Center
Wed 12:42:36 PM 39.9156 -103.4461 82° East 401 461 29,700 1,857 Climbing Denver Center
Wed 12:43:40 PM 39.9361 -103.2700 81° East 409 471 31,300 1,248 Climbing Denver Center
Wed 12:44:41 PM 39.9525 -103.1142 82° East 428 493 32,300 1,113 Climbing Denver Center
Wed 12:45:44 PM 39.9708 -102.9506 82° East 453 521 33,600 1,210 Climbing Denver Center
Wed 12:46:45 PM 39.9883 -102.7861 82° East 460 529 34,800 1,033 Climbing Denver Center
Wed 12:47:46 PM 40.0089 -102.6086 81° East 470 541 35,700 912 Climbing Denver Center
Wed 12:48:50 PM 40.0303 -102.4147 82° East 481 554 36,700 816 Climbing Denver Center
Wed 12:49:51 PM 40.0472 -102.2433 83° East 491 565 37,400 774 Climbing Denver Center
Wed 12:50:54 PM 40.0683 -102.0397 82° East 504 580 38,300 768 Climbing Denver Center
Wed 12:51:56 PM 40.0856 -101.8636 83° East 507 583 39,000 344 Climbing Denver Center
Wed 12:52:56 PM 40.1039 -101.6597 83° East 507 583 39,000  Level Denver Center
Wed 12:54:00 PM 40.1192 -101.4825 84° East 510 587 39,000  Level Denver Center
Wed 12:55:03 PM 40.1383 -101.2767 83° East 512 589 39,000  Level Denver Center
Wed 12:56:04 PM 40.1556 -101.1008 83° East 512 589 39,000  Level Denver Center
Wed 12:57:05 PM 40.1739 -100.8950 83° East 512 589 39,000  Level Denver Center
Wed 12:58:08 PM 40.1897 -100.7175 83° East 513 590 39,000  Level Denver Center
Wed 12:59:09 PM 40.2075 -100.5125 83° East 513 590 39,000  Level Denver Center
Wed 01:00:12 PM 40.2225 -100.3356 84° East 513 590 39,000  Level Denver Center
Wed 01:01:15 PM 40.2386 -100.1297 84° East 514 592 39,000  Level Denver Center
Wed 01:02:16 PM 40.2533 -99.9511 84° East 514 592 39,000  Level Denver Center
Wed 01:03:19 PM 40.2667 -99.7742 84° East 516 594 39,000  Level Denver Center
Wed 01:04:21 PM 40.2847 -99.5494 84° East 516 594 39,000  Level Denver Center
Wed 01:05:21 PM 40.2983 -99.3617 85° East 518 596 39,000  Level Denver Center
Wed 01:06:25 PM 40.3122 -99.1767 84° East 517 595 39,000  Level Denver Center
Wed 01:07:25 PM 40.3261 -98.9911 84° East 516 594 39,000  Level Denver Center
Wed 01:08:29 PM 40.3389 -98.8056 85° East 516 594 39,000  Level Denver Center
Wed 01:09:30 PM 40.3514 -98.6219 85° East 512 589 39,000  Level Denver Center
Wed 01:10:34 PM 40.3667 -98.4003 85° East 512 589 39,000  Level Denver Center
Wed 01:11:32 PM 40.3789 -98.2156 85° East 513 590 39,000  Level Minneapolis Center
Wed 01:12:33 PM 40.3906 -98.0300 85° East 513 590 39,000  Level Minneapolis Center
Wed 01:13:35 PM 40.4019 -97.8453 85° East 513 590 39,000  Level Minneapolis Center
Wed 01:14:37 PM 40.4136 -97.6581 85° East 513 590 39,000  Level Minneapolis Center
Wed 01:15:39 PM 40.4247 -97.4700 86° East 514 592 39,000  Level Minneapolis Center
Wed 01:16:40 PM 40.4353 -97.2758 86° East 517 595 39,000  Level Minneapolis Center
Wed 01:17:42 PM 40.4450 -97.0894 86° East 517 595 39,000  Level Minneapolis Center
Wed 01:18:45 PM 40.4572 -96.8633 86° East 517 595 39,000  Level Minneapolis Center
Wed 01:19:46 PM 40.4669 -96.6772 86° East 517 595 39,000  Level Minneapolis Center
Wed 01:20:48 PM 40.4758 -96.4903 86° East 517 595 39,000  Level Minneapolis Center
Wed 01:21:50 PM 40.4856 -96.3031 86° East 517 595 39,000  Level Minneapolis Center
Wed 01:22:52 PM 40.4944 -96.1153 86° East 517 595 39,000  Level Minneapolis Center
Wed 01:23:53 PM 40.5075 -95.9300 85° East 517 595 39,000  Level Minneapolis Center
Wed 01:24:55 PM 40.5425 -95.7114 78° East 514 592 39,000  Level Minneapolis Center
Wed 01:25:57 PM 40.5692 -95.5269 79° East 513 590 39,000  Level Minneapolis Center
Wed 01:26:59 PM 40.5958 -95.3444 79° East 513 590 39,000  Level Minneapolis Center
Wed 01:28:00 PM 40.6219 -95.1597 79° East 513 590 39,000 -341 Level Minneapolis Center
Wed 01:29:02 PM 40.6478 -94.9750 79° East 514 592 38,300 -726 Descending Minneapolis Center
Wed 01:30:04 PM 40.6750 -94.7928 79° East 513 590 37,500 -629 Descending Minneapolis Center
Wed 01:31:06 PM 40.7050 -94.5681 80° East 517 595 37,000 -244 Descending Minneapolis Center
Wed 01:32:07 PM 40.7281 -94.3900 80° East 518 596 37,000  Level Minneapolis Center
Wed 01:33:09 PM 40.7536 -94.2022 80° East 519 597 37,000  Level Minneapolis Center
Wed 01:34:11 PM 40.7800 -94.0136 79° East 522 601 37,000  Level Minneapolis Center
Wed 01:35:13 PM 40.8019 -93.8272 81° East 521 600 37,000  Level Minneapolis Center
Wed 01:36:15 PM 40.8308 -93.6025 80° East 521 600 37,000  Level Minneapolis Center
Wed 01:37:17 PM 40.8514 -93.4133 82° East 521 600 37,000  Level Minneapolis Center
Wed 01:38:16 PM 40.8689 -93.2211 83° East 525 604 37,000 -300 Level Chicago Center
Wed 01:39:17 PM 40.8858 -93.0317 83° East 521 600 36,400 -488 Descending Chicago Center
Wed 01:40:19 PM 40.9011 -92.8419 84° East 519 597 36,000 -195 Descending Chicago Center
Wed 01:41:20 PM 40.9169 -92.6544 84° East 514 592 36,000  Level Chicago Center
Wed 01:42:22 PM 40.9331 -92.4658 83° East 515 593 36,000  Level Chicago Center
Wed 01:43:23 PM 40.9486 -92.2772 84° East 516 594 36,000 -439 Level Chicago Center
Wed 01:44:25 PM 40.9639 -92.0872 84° East 519 597 35,100 -927 Descending Chicago Center
Wed 01:45:26 PM 40.9767 -91.9014 85° East 512 589 34,100 -1,033 Descending Chicago Center
Wed 01:46:27 PM 40.9956 -91.6778 84° East 512 589 33,000 -976 Descending Chicago Center
Wed 01:47:29 PM 41.0083 -91.5058 84° East 510 587 32,100 -976 Descending Chicago Center
Wed 01:48:30 PM 41.0214 -91.3239 85° East 499 574 31,000 -1,268 Descending Chicago Center
Wed 01:49:32 PM 41.0353 -91.1403 84° East 500 575 29,500 -1,854 Descending Chicago Center
Wed 01:50:33 PM 41.0461 -90.9644 85° East 485 558 27,200 -2,049 Descending Chicago Center
Wed 01:51:35 PM 41.0592 -90.7958 84° East 464 534 25,300 -1,561 Descending Chicago Center
Wed 01:52:36 PM 41.0731 -90.6078 84° East 431 496 24,000 -1,122 Descending Chicago Center
Wed 01:53:38 PM 41.0847 -90.4553 84° East 419 482 23,000 -488 Descending Chicago Center
Wed 01:54:39 PM 41.0967 -90.3047 84° East 412 474 23,000 -639 Level Chicago Center
Wed 01:55:40 PM 41.1083 -90.1517 84° East 414 476 21,700 -976 Descending Chicago Center
Wed 01:56:42 PM 41.1194 -89.9919 85° East 429 494 21,000 -732 Descending Chicago Center
Wed 01:57:43 PM 41.1367 -89.8344 82° East 431 496 20,200 -878 Descending Chicago Center
Wed 01:58:45 PM 41.1656 -89.6833 76° East 423 487 19,200 -1,008 Descending Chicago Center
Wed 01:59:48 PM 41.1928 -89.5358 76° East 414 476 18,100 -1,016 Descending Chicago Center
Wed 02:00:49 PM 41.2194 -89.3894 76° East 409 471 17,100 -927 Descending Chicago Center
Wed 02:01:51 PM 41.2467 -89.2419 76° East 410 472 16,200 -1,659 Descending Chicago Center
Wed 02:02:52 PM 41.2717 -89.0889 78° East 405 466 13,700 -2,488 Descending Chicago Center
Wed 02:03:54 PM 41.3008 -88.9239 77° East 388 447 11,100 -1,659 Descending Chicago Center
Wed 02:04:55 PM 41.3239 -88.8014 76° East 331 381 10,300 -976 Descending Chicago Center
Wed 02:05:57 PM 41.3431 -88.6933 77° East 298 343 9,100 -1,210 Descending Chicago Center
Wed 02:06:59 PM 41.3603 -88.5883 78° East 290 334 7,800 -1,220 Descending Chicago Center
Wed 02:08:00 PM 41.3836 -88.4831 74° East 274 315 6,600 -878 Descending Chicago Center
Wed 02:09:02 PM 41.4231 -88.4022 57° Northeast 261 300 6,000 -439 Descending Chicago Center
Wed 02:10:03 PM 41.4614 -88.3233 57° Northeast 256 295 5,700 -439 Descending Chicago Center
Wed 02:11:05 PM 41.5000 -88.2394 58° Northeast 243 280 5,100 -532 Descending Chicago Center
Wed 02:12:07 PM 41.5319 -88.1736 57° Northeast 215 247 4,600 -390 Descending Chicago Center
Wed 02:13:08 PM 41.5589 -88.1164 58° Northeast 186 214 4,300 -293 Descending Chicago Center
Wed 02:14:10 PM 41.5839 -88.0647 57° Northeast 156 180 4,000 -145 Descending Chicago Center
Wed 02:15:12 PM 41.6075 -88.0144 58° Northeast 159 183 4,000  Level Chicago Center
Wed 02:16:13 PM 41.6308 -87.9639 58° Northeast 159 183 4,000 -98 Level Chicago Center
Wed 02:17:15 PM 41.6575 -87.9089 57° Northeast 164 189 3,800 -387 Descending Chicago Center
Wed 02:18:17 PM 41.6914 -87.8686 42° Northeast 164 189 3,200 -780 Descending Chicago Center
Wed 02:19:18 PM 41.7261 -87.8253 43° Northeast 169 194 2,200 -878 Descending Chicago Center
Wed 02:20:20 PM 41.7539 -87.7900 43° Northeast 136 157 1,400 -726 Descending Chicago Center
Wed 02:21:22 PM 41.7775 -87.7603 43° Northeast 127 146 700 -677 Descending Chicago Center

Login

Don't have an account? Register now (free) for customized features, flight alerts, and more!